Terminal Aerodrome Forecast
Issued by NWS Wilmington, OH

Current Version | Previous Version | Text Only | Print | Product List | Glossary On
Versions: 1 2 3 4 5 6 7 8 9 10 11 12 13 14 15 16 17 18 19 20 21 22 23 24
000
FTUS41 KILN 281051 AAB
TAFCVG
TAF AMD
KCVG 281051Z 2811/0112 16006KT 6SM -SHRA OVC035
     FM281400 18008KT 5SM -SHRA SCT008 OVC012
     FM282000 19009KT 5SM -SHRA VCTS SCT008 OVC015CB
     FM282300 20014KT P6SM OVC012
     FM010500 20014G23KT 5SM SHRA VCTS OVC008CB=

USA.gov is the U.S. government's official web portal to all federal, state and local government web resources and services.